sensor_id;sensor_type;location;lat;lon;timestamp;pressure;altitude;pressure_sealevel;temperature;humidity
29371;BME280;16357;52.188;7.838;2022-11-11T00:03:32;102074.06;;;10.51;63.04
29371;BME280;16357;52.188;7.838;2022-11-11T00:06:03;102064.31;;;10.50;62.93
29371;BME280;16357;52.188;7.838;2022-11-11T00:08:30;102074.44;;;10.47;63.11
29371;BME280;16357;52.188;7.838;2022-11-11T00:11:11;102080.78;;;10.46;62.74
29371;BME280;16357;52.188;7.838;2022-11-11T00:13:39;102069.44;;;10.42;63.13
29371;BME280;16357;52.188;7.838;2022-11-11T00:16:06;102062.38;;;10.41;63.24
29371;BME280;16357;52.188;7.838;2022-11-11T00:18:34;102069.69;;;10.39;63.71
29371;BME280;16357;52.188;7.838;2022-11-11T00:21:19;102064.31;;;10.39;63.62
29371;BME280;16357;52.188;7.838;2022-11-11T00:27:01;102070.78;;;10.37;63.39
29371;BME280;16357;52.188;7.838;2022-11-11T00:29:28;102074.44;;;10.36;63.38
29371;BME280;16357;52.188;7.838;2022-11-11T00:31:54;102077.22;;;10.34;63.51
29371;BME280;16357;52.188;7.838;2022-11-11T00:34:39;102072.88;;;10.33;63.45
29371;BME280;16357;52.188;7.838;2022-11-11T00:37:06;102078.34;;;10.31;63.85
29371;BME280;16357;52.188;7.838;2022-11-11T00:39:32;102088.22;;;10.31;63.61
29371;BME280;16357;52.188;7.838;2022-11-11T00:41:59;102099.09;;;10.29;63.54
29371;BME280;16357;52.188;7.838;2022-11-11T00:44:25;102096.50;;;10.28;63.68
29371;BME280;16357;52.188;7.838;2022-11-11T00:46:52;102107.25;;;10.28;63.90
29371;BME280;16357;52.188;7.838;2022-11-11T00:49:37;102115.34;;;10.26;63.54
29371;BME280;16357;52.188;7.838;2022-11-11T00:52:22;102118.19;;;10.25;63.71
29371;BME280;16357;52.188;7.838;2022-11-11T00:54:48;102120.13;;;10.23;63.48
29371;BME280;16357;52.188;7.838;2022-11-11T00:57:14;102121.09;;;10.22;63.43
29371;BME280;16357;52.188;7.838;2022-11-11T00:59:41;102126.56;;;10.20;63.46
29371;BME280;16357;52.188;7.838;2022-11-11T01:02:08;102123.16;;;10.18;63.47
29371;BME280;16357;52.188;7.838;2022-11-11T01:04:35;102119.72;;;10.16;63.40
29371;BME280;16357;52.188;7.838;2022-11-11T01:07:01;102115.47;;;10.14;63.63
29371;BME280;16357;52.188;7.838;2022-11-11T01:09:28;102121.06;;;10.10;63.39
29371;BME280;16357;52.188;7.838;2022-11-11T01:11:54;102127.41;;;10.09;63.51
29371;BME280;16357;52.188;7.838;2022-11-11T01:14:21;102123.16;;;10.07;63.50
29371;BME280;16357;52.188;7.838;2022-11-11T01:16:47;102126.91;;;10.04;63.75
29371;BME280;16357;52.188;7.838;2022-11-11T01:19:14;102133.38;;;10.02;63.58
29371;BME280;16357;52.188;7.838;2022-11-11T01:21:40;102138.00;;;10.00;63.63
29371;BME280;16357;52.188;7.838;2022-11-11T01:24:07;102125.69;;;9.97;63.95
29371;BME280;16357;52.188;7.838;2022-11-11T01:26:33;102131.16;;;9.96;63.64
29371;BME280;16357;52.188;7.838;2022-11-11T01:29:00;102132.25;;;9.93;63.32
29371;BME280;16357;52.188;7.838;2022-11-11T01:31:26;102132.50;;;9.90;63.46
29371;BME280;16357;52.188;7.838;2022-11-11T01:33:53;102123.72;;;9.88;63.70
29371;BME280;16357;52.188;7.838;2022-11-11T01:36:22;102127.59;;;9.84;63.85
29371;BME280;16357;52.188;7.838;2022-11-11T01:38:51;102134.03;;;9.81;63.61
29371;BME280;16357;52.188;7.838;2022-11-11T01:41:21;102128.81;;;9.80;63.70
29371;BME280;16357;52.188;7.838;2022-11-11T01:46:33;102122.22;;;9.73;63.87
29371;BME280;16357;52.188;7.838;2022-11-11T01:54:49;102112.16;;;9.63;63.58
29371;BME280;16357;52.188;7.838;2022-11-11T01:57:25;102115.09;;;9.60;63.86
29371;BME280;16357;52.188;7.838;2022-11-11T01:59:57;102113.50;;;9.58;63.93
29371;BME280;16357;52.188;7.838;2022-11-11T02:02:47;102109.22;;;9.55;63.97
29371;BME280;16357;52.188;7.838;2022-11-11T02:05:18;102120.06;;;9.54;64.38
29371;BME280;16357;52.188;7.838;2022-11-11T02:08:07;102127.38;;;9.52;64.09
29371;BME280;16357;52.188;7.838;2022-11-11T02:10:37;102127.38;;;9.52;64.20
29371;BME280;16357;52.188;7.838;2022-11-11T02:13:12;102122.09;;;9.50;64.23
29371;BME280;16357;52.188;7.838;2022-11-11T02:15:58;102119.44;;;9.50;64.57
29371;BME280;16357;52.188;7.838;2022-11-11T02:18:25;102116.03;;;9.48;64.55
29371;BME280;16357;52.188;7.838;2022-11-11T02:20:52;102113.47;;;9.47;64.53
29371;BME280;16357;52.188;7.838;2022-11-11T02:23:39;102123.31;;;9.46;64.44
29371;BME280;16357;52.188;7.838;2022-11-11T02:26:09;102130.38;;;9.47;64.53
29371;BME280;16357;52.188;7.838;2022-11-11T02:28:36;102131.47;;;9.44;64.45
29371;BME280;16357;52.188;7.838;2022-11-11T02:31:03;102127.09;;;9.43;64.86
29371;BME280;16357;52.188;7.838;2022-11-11T02:33:30;102120.75;;;9.44;64.90
29371;BME280;16357;52.188;7.838;2022-11-11T02:35:57;102119.91;;;9.44;64.60
29371;BME280;16357;52.188;7.838;2022-11-11T02:38:25;102115.53;;;9.43;64.74
29371;BME280;16357;52.188;7.838;2022-11-11T02:40:52;102110.16;;;9.43;64.99
29371;BME280;16357;52.188;7.838;2022-11-11T02:43:37;102111.13;;;9.42;64.92
29371;BME280;16357;52.188;7.838;2022-11-11T02:46:05;102117.31;;;9.42;64.79
29371;BME280;16357;52.188;7.838;2022-11-11T02:48:32;102104.06;;;9.41;64.79
29371;BME280;16357;52.188;7.838;2022-11-11T02:50:58;102111.25;;;9.40;64.82
29371;BME280;16357;52.188;7.838;2022-11-11T02:53:25;102118.41;;;9.40;65.11
29371;BME280;16357;52.188;7.838;2022-11-11T02:55:52;102113.06;;;9.40;65.31
29371;BME280;16357;52.188;7.838;2022-11-11T02:58:19;102110.38;;;9.40;65.10
29371;BME280;16357;52.188;7.838;2022-11-11T03:00:45;102096.97;;;9.40;65.49
29371;BME280;16357;52.188;7.838;2022-11-11T03:03:12;102097.84;;;9.40;65.49
29371;BME280;16357;52.188;7.838;2022-11-11T03:05:38;102098.72;;;9.41;65.32
29371;BME280;16357;52.188;7.838;2022-11-11T03:08:05;102100.41;;;9.42;65.43
29371;BME280;16357;52.188;7.838;2022-11-11T03:10:32;102103.94;;;9.42;65.49
29371;BME280;16357;52.188;7.838;2022-11-11T03:12:58;102098.47;;;9.44;65.63
29371;BME280;16357;52.188;7.838;2022-11-11T03:15:25;102093.97;;;9.44;65.71
29371;BME280;16357;52.188;7.838;2022-11-11T03:17:51;102094.81;;;9.45;65.25
29371;BME280;16357;52.188;7.838;2022-11-11T03:20:18;102101.91;;;9.46;65.41
29371;BME280;16357;52.188;7.838;2022-11-11T03:23:12;102097.28;;;9.48;65.46
29371;BME280;16357;52.188;7.838;2022-11-11T03:25:49;102102.63;;;9.48;65.33
29371;BME280;16357;52.188;7.838;2022-11-11T03:28:22;102097.16;;;9.50;65.60
29371;BME280;16357;52.188;7.838;2022-11-11T03:30:52;102099.97;;;9.48;65.70
29371;BME280;16357;52.188;7.838;2022-11-11T03:33:18;102094.47;;;9.50;65.29
29371;BME280;16357;52.188;7.838;2022-11-11T03:35:47;102104.25;;;9.51;65.27
29371;BME280;16357;52.188;7.838;2022-11-11T03:38:14;102116.75;;;9.50;65.68
29371;BME280;16357;52.188;7.838;2022-11-11T03:40:42;102121.16;;;9.51;65.35
29371;BME280;16357;52.188;7.838;2022-11-11T03:43:09;102118.47;;;9.51;65.55
29371;BME280;16357;52.188;7.838;2022-11-11T03:45:36;102107.75;;;9.51;65.67
29371;BME280;16357;52.188;7.838;2022-11-11T03:48:02;102119.31;;;9.52;65.43
29371;BME280;16357;52.188;7.838;2022-11-11T03:50:29;102108.63;;;9.52;65.62
29371;BME280;16357;52.188;7.838;2022-11-11T03:52:55;102101.44;;;9.52;65.25
29371;BME280;16357;52.188;7.838;2022-11-11T03:55:21;102105.09;;;9.51;65.38
29371;BME280;16357;52.188;7.838;2022-11-11T03:57:48;102102.28;;;9.53;65.27
29371;BME280;16357;52.188;7.838;2022-11-11T04:00:20;102100.47;;;9.53;65.53
29371;BME280;16357;52.188;7.838;2022-11-11T04:02:48;102099.59;;;9.53;65.52
29371;BME280;16357;52.188;7.838;2022-11-11T04:05:33;102101.44;;;9.52;65.53
29371;BME280;16357;52.188;7.838;2022-11-11T04:08:19;102104.94;;;9.53;65.44
29371;BME280;16357;52.188;7.838;2022-11-11T04:11:16;102108.50;;;9.53;65.42
29371;BME280;16357;52.188;7.838;2022-11-11T04:13:45;102101.44;;;9.52;65.53
29371;BME280;16357;52.188;7.838;2022-11-11T04:16:31;102105.09;;;9.51;65.75
29371;BME280;16357;52.188;7.838;2022-11-11T04:18:57;102108.72;;;9.50;65.72
29371;BME280;16357;52.188;7.838;2022-11-11T04:21:42;102112.28;;;9.51;65.29
29371;BME280;16357;52.188;7.838;2022-11-11T04:24:10;102114.06;;;9.50;65.16
29371;BME280;16357;52.188;7.838;2022-11-11T04:26:57;102122.09;;;9.50;65.27
29371;BME280;16357;52.188;7.838;2022-11-11T04:29:24;102114.31;;;9.47;65.15
29371;BME280;16357;52.188;7.838;2022-11-11T04:31:57;102120.50;;;9.48;65.00
29371;BME280;16357;52.188;7.838;2022-11-11T04:34:47;102125.16;;;9.45;64.82
29371;BME280;16357;52.188;7.838;2022-11-11T04:37:15;102125.25;;;9.44;65.15
29371;BME280;16357;52.188;7.838;2022-11-11T04:39:42;102128.03;;;9.42;65.76
29371;BME280;16357;52.188;7.838;2022-11-11T04:42:29;102127.19;;;9.42;64.88
29371;BME280;16357;52.188;7.838;2022-11-11T04:44:57;102133.53;;;9.41;65.24
29371;BME280;16357;52.188;7.838;2022-11-11T04:50:33;102139.13;;;9.38;65.03
29371;BME280;16357;52.188;7.838;2022-11-11T04:53:00;102136.66;;;9.35;65.08
29371;BME280;16357;52.188;7.838;2022-11-11T04:55:27;102142.22;;;9.32;65.14
29371;BME280;16357;52.188;7.838;2022-11-11T04:58:12;102135.19;;;9.31;64.85
29371;BME280;16357;52.188;7.838;2022-11-11T05:00:39;102147.81;;;9.29;65.35
29371;BME280;16357;52.188;7.838;2022-11-11T05:03:06;102145.38;;;9.26;65.04
29371;BME280;16357;52.188;7.838;2022-11-11T05:08:26;102149.22;;;9.21;65.01
29371;BME280;16357;52.188;7.838;2022-11-11T05:11:11;102144.00;;;9.20;64.98
29371;BME280;16357;52.188;7.838;2022-11-11T05:13:38;102147.75;;;9.17;65.17
29371;BME280;16357;52.188;7.838;2022-11-11T05:16:27;102155.91;;;9.16;65.25
29371;BME280;16357;52.188;7.838;2022-11-11T05:19:14;102157.84;;;9.14;65.30
29371;BME280;16357;52.188;7.838;2022-11-11T05:22:02;102159.44;;;9.16;65.42
29371;BME280;16357;52.188;7.838;2022-11-11T05:24:29;102166.72;;;9.14;65.35
29371;BME280;16357;52.188;7.838;2022-11-11T05:27:14;102168.66;;;9.12;65.33
29371;BME280;16357;52.188;7.838;2022-11-11T05:29:41;102174.13;;;9.11;65.25
29371;BME280;16357;52.188;7.838;2022-11-11T05:32:07;102168.88;;;9.09;65.52
29371;BME280;16357;52.188;7.838;2022-11-11T05:34:34;102166.22;;;9.09;65.39
29371;BME280;16357;52.188;7.838;2022-11-11T05:37:00;102173.41;;;9.09;65.64
29371;BME280;16357;52.188;7.838;2022-11-11T05:39:27;102171.66;;;9.08;65.83
29371;BME280;16357;52.188;7.838;2022-11-11T05:41:53;102172.50;;;9.08;65.73
29371;BME280;16357;52.188;7.838;2022-11-11T05:44:20;102175.19;;;9.08;65.88
29371;BME280;16357;52.188;7.838;2022-11-11T05:46:46;102177.03;;;9.08;66.15
29371;BME280;16357;52.188;7.838;2022-11-11T05:49:12;102180.53;;;9.08;66.31
29371;BME280;16357;52.188;7.838;2022-11-11T05:51:43;102186.78;;;9.09;66.04
29371;BME280;16357;52.188;7.838;2022-11-11T05:54:10;102181.28;;;9.10;65.55
29371;BME280;16357;52.188;7.838;2022-11-11T05:56:36;102176.06;;;9.09;65.94
29371;BME280;16357;52.188;7.838;2022-11-11T05:59:03;102181.44;;;9.09;65.69
29371;BME280;16357;52.188;7.838;2022-11-11T06:01:30;102182.38;;;9.08;66.01
29371;BME280;16357;52.188;7.838;2022-11-11T06:03:57;102186.88;;;9.07;66.20
29371;BME280;16357;52.188;7.838;2022-11-11T06:06:24;102193.09;;;9.08;66.53
29371;BME280;16357;52.188;7.838;2022-11-11T06:08:50;102191.38;;;9.07;66.03
29371;BME280;16357;52.188;7.838;2022-11-11T06:11:17;102196.75;;;9.07;66.07
29371;BME280;16357;52.188;7.838;2022-11-11T06:13:43;102179.81;;;9.06;66.44
29371;BME280;16357;52.188;7.838;2022-11-11T06:16:10;102190.53;;;9.06;66.33
29371;BME280;16357;52.188;7.838;2022-11-11T06:18:36;102195.88;;;9.06;66.22
29371;BME280;16357;52.188;7.838;2022-11-11T06:21:03;102194.06;;;9.07;66.34
29371;BME280;16357;52.188;7.838;2022-11-11T06:23:30;102196.75;;;9.07;66.36
29371;BME280;16357;52.188;7.838;2022-11-11T06:25:56;102202.94;;;9.07;66.58
29371;BME280;16357;52.188;7.838;2022-11-11T06:31:06;102200.16;;;9.09;66.80
29371;BME280;16357;52.188;7.838;2022-11-11T06:33:34;102196.50;;;9.10;66.96
29371;BME280;16357;52.188;7.838;2022-11-11T06:36:01;102197.34;;;9.10;67.33
29371;BME280;16357;52.188;7.838;2022-11-11T06:38:27;102202.63;;;9.12;66.96
29371;BME280;16357;52.188;7.838;2022-11-11T06:40:54;102208.72;;;9.14;67.18
29371;BME280;16357;52.188;7.838;2022-11-11T06:43:20;102209.56;;;9.14;67.23
29371;BME280;16357;52.188;7.838;2022-11-11T06:45:51;102205.81;;;9.17;66.90
29371;BME280;16357;52.188;7.838;2022-11-11T06:48:19;102204.84;;;9.18;67.15
29371;BME280;16357;52.188;7.838;2022-11-11T06:50:46;102211.94;;;9.19;67.48
29371;BME280;16357;52.188;7.838;2022-11-11T06:53:15;102214.47;;;9.20;66.81
29371;BME280;16357;52.188;7.838;2022-11-11T06:55:42;102225.94;;;9.22;67.26
29371;BME280;16357;52.188;7.838;2022-11-11T06:58:14;102224.09;;;9.23;67.14
29371;BME280;16357;52.188;7.838;2022-11-11T07:00:45;102227.53;;;9.25;67.08
29371;BME280;16357;52.188;7.838;2022-11-11T07:03:15;102230.97;;;9.27;67.20
29371;BME280;16357;52.188;7.838;2022-11-11T07:05:44;102226.47;;;9.28;67.38
29371;BME280;16357;52.188;7.838;2022-11-11T07:08:13;102232.66;;;9.28;67.01
29371;BME280;16357;52.188;7.838;2022-11-11T07:10:43;102236.94;;;9.31;67.11
29371;BME280;16357;52.188;7.838;2022-11-11T07:13:10;102238.63;;;9.32;66.88
29371;BME280;16357;52.188;7.838;2022-11-11T07:15:37;102237.69;;;9.33;66.79
29371;BME280;16357;52.188;7.838;2022-11-11T07:18:04;102240.38;;;9.33;67.18
29371;BME280;16357;52.188;7.838;2022-11-11T07:20:31;102237.56;;;9.34;67.41
29371;BME280;16357;52.188;7.838;2022-11-11T07:22:57;102232.09;;;9.36;67.11
29371;BME280;16357;52.188;7.838;2022-11-11T07:25:24;102240.91;;;9.38;67.07
29371;BME280;16357;52.188;7.838;2022-11-11T07:27:50;102238.94;;;9.40;67.08
29371;BME280;16357;52.188;7.838;2022-11-11T07:30:24;102246.78;;;9.43;67.10
29371;BME280;16357;52.188;7.838;2022-11-11T07:32:51;102250.16;;;9.45;67.23
29371;BME280;16357;52.188;7.838;2022-11-11T07:35:20;102258.00;;;9.48;67.62
29371;BME280;16357;52.188;7.838;2022-11-11T07:37:46;102263.13;;;9.51;67.04
29371;BME280;16357;52.188;7.838;2022-11-11T07:40:15;102269.25;;;9.53;66.96
29371;BME280;16357;52.188;7.838;2022-11-11T07:42:42;102264.59;;;9.55;67.10
29371;BME280;16357;52.188;7.838;2022-11-11T07:45:10;102279.50;;;9.59;66.85
29371;BME280;16357;52.188;7.838;2022-11-11T07:47:36;102271.25;;;9.62;67.22
29371;BME280;16357;52.188;7.838;2022-11-11T07:50:04;102271.00;;;9.65;66.87
29371;BME280;16357;52.188;7.838;2022-11-11T07:52:33;102274.34;;;9.69;67.23
29371;BME280;16357;52.188;7.838;2022-11-11T07:55:03;102270.56;;;9.72;66.79
29371;BME280;16357;52.188;7.838;2022-11-11T07:57:30;102272.91;;;9.76;67.08
29371;BME280;16357;52.188;7.838;2022-11-11T07:59:56;102279.00;;;9.78;66.97
29371;BME280;16357;52.188;7.838;2022-11-11T08:02:23;102281.34;;;9.83;66.76
29371;BME280;16357;52.188;7.838;2022-11-11T08:04:49;102283.81;;;9.86;66.87
29371;BME280;16357;52.188;7.838;2022-11-11T08:07:20;102281.63;;;9.91;66.98
29371;BME280;16357;52.188;7.838;2022-11-11T08:09:49;102273.34;;;9.94;66.87
29371;BME280;16357;52.188;7.838;2022-11-11T08:12:15;102273.88;;;9.99;66.85
29371;BME280;16357;52.188;7.838;2022-11-11T08:15:00;102278.03;;;10.03;66.86
29371;BME280;16357;52.188;7.838;2022-11-11T08:17:36;102282.09;;;10.09;66.45
29371;BME280;16357;52.188;7.838;2022-11-11T08:20:04;102279.03;;;10.14;66.78
29371;BME280;16357;52.188;7.838;2022-11-11T08:22:38;102283.13;;;10.19;66.44
29371;BME280;16357;52.188;7.838;2022-11-11T08:25:17;102273.84;;;10.23;66.49
29371;BME280;16357;52.188;7.838;2022-11-11T08:27:44;102277.91;;;10.29;66.56
29371;BME280;16357;52.188;7.838;2022-11-11T08:30:10;102272.22;;;10.33;66.37
29371;BME280;16357;52.188;7.838;2022-11-11T08:32:37;102286.13;;;10.39;66.20
29371;BME280;16357;52.188;7.838;2022-11-11T08:35:04;102279.56;;;10.43;66.41
29371;BME280;16357;52.188;7.838;2022-11-11T08:37:30;102274.56;;;10.49;66.35
29371;BME280;16357;52.188;7.838;2022-11-11T08:39:57;102283.13;;;10.54;66.24
29371;BME280;16357;52.188;7.838;2022-11-11T08:42:23;102278.16;;;10.61;66.14
29371;BME280;16357;52.188;7.838;2022-11-11T08:44:49;102275.09;;;10.66;66.04
29371;BME280;16357;52.188;7.838;2022-11-11T08:47:17;102276.44;;;10.71;65.87
29371;BME280;16357;52.188;7.838;2022-11-11T08:49:45;102277.81;;;10.77;65.80
29371;BME280;16357;52.188;7.838;2022-11-11T08:52:14;102276.34;;;10.84;65.65
29371;BME280;16357;52.188;7.838;2022-11-11T08:54:41;102276.84;;;10.89;65.44
29371;BME280;16357;52.188;7.838;2022-11-11T08:57:07;102274.63;;;10.94;65.42
29371;BME280;16357;52.188;7.838;2022-11-11T08:59:34;102282.22;;;11.01;65.40
29371;BME280;16357;52.188;7.838;2022-11-11T09:02:00;102276.38;;;11.07;65.24
29371;BME280;16357;52.188;7.838;2022-11-11T09:04:27;102282.22;;;11.12;65.12
29371;BME280;16357;52.188;7.838;2022-11-11T09:07:11;102288.81;;;11.19;64.96
29371;BME280;16357;52.188;7.838;2022-11-11T09:09:37;102287.47;;;11.25;64.70
29371;BME280;16357;52.188;7.838;2022-11-11T09:12:04;102286.13;;;11.30;64.74
29371;BME280;16357;52.188;7.838;2022-11-11T09:14:30;102284.88;;;11.34;64.84
29371;BME280;16357;52.188;7.838;2022-11-11T09:16:57;102287.09;;;11.40;64.78
29371;BME280;16357;52.188;7.838;2022-11-11T09:19:23;102291.97;;;11.47;64.45
29371;BME280;16357;52.188;7.838;2022-11-11T09:21:50;102291.47;;;11.53;64.27
29371;BME280;16357;52.188;7.838;2022-11-11T09:24:18;102288.28;;;11.59;64.33
29371;BME280;16357;52.188;7.838;2022-11-11T09:26:46;102298.53;;;11.65;64.08
29371;BME280;16357;52.188;7.838;2022-11-11T09:29:14;102299.03;;;11.70;64.02
29371;BME280;16357;52.188;7.838;2022-11-11T09:31:40;102298.50;;;11.76;64.12
29371;BME280;16357;52.188;7.838;2022-11-11T09:34:11;102299.72;;;11.83;64.07
29371;BME280;16357;52.188;7.838;2022-11-11T09:36:37;102301.91;;;11.90;63.64
29371;BME280;16357;52.188;7.838;2022-11-11T09:39:04;102302.28;;;11.96;63.95
29371;BME280;16357;52.188;7.838;2022-11-11T09:41:53;102300.66;;;12.05;63.63
29371;BME280;16357;52.188;7.838;2022-11-11T09:45:24;102302.59;;;12.14;63.55
29371;BME280;16357;52.188;7.838;2022-11-11T09:48:02;102306.22;;;12.24;63.41
29371;BME280;16357;52.188;7.838;2022-11-11T09:50:37;102309.13;;;12.33;63.24
29371;BME280;16357;52.188;7.838;2022-11-11T09:53:18;102310.28;;;12.40;63.16
29371;BME280;16357;52.188;7.838;2022-11-11T09:55:55;102310.50;;;12.48;63.01
29371;BME280;16357;52.188;7.838;2022-11-11T09:58:33;102313.41;;;12.56;62.50
29371;BME280;16357;52.188;7.838;2022-11-11T10:01:16;102304.81;;;12.62;62.60
29371;BME280;16357;52.188;7.838;2022-11-11T10:03:47;102308.69;;;12.69;62.30
29371;BME280;16357;52.188;7.838;2022-11-11T10:06:27;102308.16;;;12.76;62.11
29371;BME280;16357;52.188;7.838;2022-11-11T10:09:00;102314.72;;;12.83;62.06
29371;BME280;16357;52.188;7.838;2022-11-11T10:11:46;102315.03;;;12.89;61.89
29371;BME280;16357;52.188;7.838;2022-11-11T10:14:13;102312.78;;;12.94;61.72
29371;BME280;16357;52.188;7.838;2022-11-11T10:16:53;102313.13;;;13.01;61.71
29371;BME280;16357;52.188;7.838;2022-11-11T10:19:33;102314.28;;;13.08;61.65
29371;BME280;16357;52.188;7.838;2022-11-11T10:22:21;102311.78;;;13.16;61.39
29371;BME280;16357;52.188;7.838;2022-11-11T10:25:13;102311.25;;;13.23;61.48
29371;BME280;16357;52.188;7.838;2022-11-11T10:27:44;102310.72;;;13.29;61.07
29371;BME280;16357;52.188;7.838;2022-11-11T10:33:11;102313.19;;;13.42;60.92
29371;BME280;16357;52.188;7.838;2022-11-11T10:35:41;102313.34;;;13.50;61.17
29371;BME280;16357;52.188;7.838;2022-11-11T10:41:26;102307.16;;;13.69;63.08
29371;BME280;16357;52.188;7.838;2022-11-11T10:43:55;102302.63;;;13.79;61.28
29371;BME280;16357;52.188;7.838;2022-11-11T10:46:26;102300.69;;;13.91;60.93
29371;BME280;16357;52.188;7.838;2022-11-11T10:49:00;102302.25;;;14.03;60.57
29371;BME280;16357;52.188;7.838;2022-11-11T10:51:30;102309.34;;;14.14;60.15
29371;BME280;16357;52.188;7.838;2022-11-11T10:54:09;102303.13;;;14.23;60.45
29371;BME280;16357;52.188;7.838;2022-11-11T10:57:05;102307.09;;;14.38;60.33
29371;BME280;16357;52.188;7.838;2022-11-11T10:59:40;102306.94;;;14.49;59.08
29371;BME280;16357;52.188;7.838;2022-11-11T11:02:16;102302.28;;;14.61;59.23
29371;BME280;16357;52.188;7.838;2022-11-11T11:07:16;102302.06;;;14.82;58.68
29371;BME280;16357;52.188;7.838;2022-11-11T11:09:54;102289.69;;;14.89;58.61
29371;BME280;16357;52.188;7.838;2022-11-11T11:12:34;102292.50;;;14.98;58.47
29371;BME280;16357;52.188;7.838;2022-11-11T11:15:08;102295.47;;;15.04;58.22
29371;BME280;16357;52.188;7.838;2022-11-11T11:17:58;102292.88;;;15.12;58.02
29371;BME280;16357;52.188;7.838;2022-11-11T11:20:26;102284.34;;;15.17;57.37
29371;BME280;16357;52.188;7.838;2022-11-11T11:22:54;102284.56;;;15.24;57.29
29371;BME280;16357;52.188;7.838;2022-11-11T11:25:25;102281.13;;;15.31;57.24
29371;BME280;16357;52.188;7.838;2022-11-11T11:28:11;102285.94;;;15.37;56.72
29371;BME280;16357;52.188;7.838;2022-11-11T11:30:38;102289.03;;;15.43;56.44
29371;BME280;16357;52.188;7.838;2022-11-11T11:33:07;102289.31;;;15.49;56.71
29371;BME280;16357;52.188;7.838;2022-11-11T11:35:39;102288.69;;;15.55;56.02
29371;BME280;16357;52.188;7.838;2022-11-11T11:38:07;102282.81;;;15.60;56.18
29371;BME280;16357;52.188;7.838;2022-11-11T11:43:46;102281.66;;;15.72;56.16
29371;BME280;16357;52.188;7.838;2022-11-11T11:51:44;102278.81;;;15.92;55.82
29371;BME280;16357;52.188;7.838;2022-11-11T11:56:55;102272.16;;;16.04;55.65
29371;BME280;16357;52.188;7.838;2022-11-11T11:59:39;102278.63;;;16.11;55.25
29371;BME280;16357;52.188;7.838;2022-11-11T12:05:01;102268.28;;;16.24;54.92
29371;BME280;16357;52.188;7.838;2022-11-11T12:07:56;102275.78;;;16.31;54.68
29371;BME280;16357;52.188;7.838;2022-11-11T12:10:41;102273.28;;;16.37;54.68
29371;BME280;16357;52.188;7.838;2022-11-11T12:15:56;102267.47;;;16.50;54.48
29371;BME280;16357;52.188;7.838;2022-11-11T12:21:16;102268.22;;;16.60;53.56
29371;BME280;16357;52.188;7.838;2022-11-11T12:34:56;102260.97;;;16.87;51.96
29371;BME280;16357;52.188;7.838;2022-11-11T12:37:37;102253.91;;;16.94;52.40
29371;BME280;16357;52.188;7.838;2022-11-11T12:40:34;102253.25;;;17.00;52.42
29371;BME280;16357;52.188;7.838;2022-11-11T12:43:28;102262.59;;;17.06;52.13
29371;BME280;16357;52.188;7.838;2022-11-11T12:51:54;102247.59;;;17.20;51.94
29371;BME280;16357;52.188;7.838;2022-11-11T13:00:14;102245.25;;;17.33;50.79
29371;BME280;16357;52.188;7.838;2022-11-11T13:03:13;102254.75;;;17.37;50.94
29371;BME280;16357;52.188;7.838;2022-11-11T13:06:15;102255.28;;;17.41;50.39
29371;BME280;16357;52.188;7.838;2022-11-11T13:16:25;102246.63;;;17.45;48.22
29371;BME280;16357;52.188;7.838;2022-11-11T13:22:00;102250.75;;;17.49;48.93
29371;BME280;16357;52.188;7.838;2022-11-11T13:24:28;102258.19;;;17.47;48.38
29371;BME280;16357;52.188;7.838;2022-11-11T13:27:02;102257.19;;;17.48;48.61
29371;BME280;16357;52.188;7.838;2022-11-11T13:32:14;102266.31;;;17.47;48.44
29371;BME280;16357;52.188;7.838;2022-11-11T13:34:43;102262.91;;;17.45;48.31
29371;BME280;16357;52.188;7.838;2022-11-11T13:37:21;102252.94;;;17.46;48.62
29371;BME280;16357;52.188;7.838;2022-11-11T13:39:50;102252.25;;;17.44;48.64
29371;BME280;16357;52.188;7.838;2022-11-11T13:42:27;102248.50;;;17.45;48.73
29371;BME280;16357;52.188;7.838;2022-11-11T13:44:58;102254.78;;;17.45;48.29
29371;BME280;16357;52.188;7.838;2022-11-11T13:47:35;102254.63;;;17.47;48.56
29371;BME280;16357;52.188;7.838;2022-11-11T13:50:13;102261.22;;;17.44;48.61
29371;BME280;16357;52.188;7.838;2022-11-11T13:53:14;102254.97;;;17.44;48.34
29371;BME280;16357;52.188;7.838;2022-11-11T13:55:51;102258.84;;;17.41;47.81
29371;BME280;16357;52.188;7.838;2022-11-11T13:58:28;102265.28;;;17.40;48.29
29371;BME280;16357;52.188;7.838;2022-11-11T14:00:59;102263.06;;;17.36;47.79
29371;BME280;16357;52.188;7.838;2022-11-11T14:03:29;102262.53;;;17.32;47.84
29371;BME280;16357;52.188;7.838;2022-11-11T14:17:01;102269.28;;;17.20;47.88
29371;BME280;16357;52.188;7.838;2022-11-11T14:19:30;102278.59;;;17.17;47.87
29371;BME280;16357;52.188;7.838;2022-11-11T14:22:28;102281.31;;;17.17;48.29
29371;BME280;16357;52.188;7.838;2022-11-11T14:25:17;102275.19;;;17.15;48.42
29371;BME280;16357;52.188;7.838;2022-11-11T14:27:49;102275.34;;;17.14;48.36
29371;BME280;16357;52.188;7.838;2022-11-11T14:33:00;102279.41;;;17.09;48.05
29371;BME280;16357;52.188;7.838;2022-11-11T14:35:37;102278.38;;;17.10;49.37
29371;BME280;16357;52.188;7.838;2022-11-11T14:38:20;102274.31;;;17.06;48.15
29371;BME280;16357;52.188;7.838;2022-11-11T14:40:50;102271.22;;;17.01;47.84
29371;BME280;16357;52.188;7.838;2022-11-11T14:43:38;102276.09;;;16.98;48.28
29371;BME280;16357;52.188;7.838;2022-11-11T14:46:10;102281.00;;;16.94;48.34
29371;BME280;16357;52.188;7.838;2022-11-11T14:48:57;102282.50;;;16.88;48.23
29371;BME280;16357;52.188;7.838;2022-11-11T14:51:49;102291.09;;;16.84;48.64
29371;BME280;16357;52.188;7.838;2022-11-11T14:54:31;102285.31;;;16.79;48.15
29371;BME280;16357;52.188;7.838;2022-11-11T14:57:03;102293.03;;;16.74;48.04
29371;BME280;16357;52.188;7.838;2022-11-11T14:59:31;102291.81;;;16.68;47.98
29371;BME280;16357;52.188;7.838;2022-11-11T15:01:58;102290.59;;;16.62;47.84